JST421 YSSY-YMML
Flight info
| Callsign | JST421 |
|---|---|
| Flight time | 1h 25m |
| Altitude | 38000 |
| Route | KEVIN DCT WOL H65 LEECE Q29 ML |
| Aircraft | A20N/M-SDE2E3FGHIRWXY/LB1 |
Departure
| Time | 2026-04-20 04:38 |
|---|---|
| Airport | Sydney Kingsford Smith International Airport (YSSY) |
Arrival
| Time | 2026-04-20 06:04 |
|---|---|
| Airport | Melbourne Airport (YMML) |
| Time | Latitude | Longitude | Altitude | Speed | Heading |
|---|---|---|---|---|---|
| 2026-04-20 04:09 | -33.93563 | 151.17775 | 34 ft | 0 kts | 280° |
| 2026-04-20 04:24 | -33.93563 | 151.17781 | 33 ft | 2 kts | 279° |
| 2026-04-20 04:25 | -33.93566 | 151.17800 | 33 ft | 2 kts | 279° |
| 2026-04-20 04:25 | -33.93568 | 151.17820 | 34 ft | 2 kts | 269° |
| 2026-04-20 04:25 | -33.93563 | 151.17830 | 30 ft | 0 kts | 187° |
| 2026-04-20 04:33 | -33.93590 | 151.17825 | 34 ft | 7 kts | 191° |
| 2026-04-20 04:33 | -33.93607 | 151.17821 | 33 ft | 2 kts | 189° |
| 2026-04-20 04:33 | -33.93622 | 151.17818 | 33 ft | 5 kts | 188° |
| 2026-04-20 04:33 | -33.93656 | 151.17804 | 33 ft | 6 kts | 221° |
| 2026-04-20 04:34 | -33.93664 | 151.17738 | 33 ft | 11 kts | 278° |
| 2026-04-20 04:34 | -33.93652 | 151.17646 | 33 ft | 11 kts | 274° |
| 2026-04-20 04:34 | -33.93641 | 151.17528 | 19 ft | 16 kts | 270° |
| 2026-04-20 04:34 | -33.93649 | 151.17477 | 18 ft | 0 kts | 255° |
| 2026-04-20 04:35 | -33.93649 | 151.17475 | 18 ft | 0 kts | 255° |
| 2026-04-20 04:35 | -33.93650 | 151.17472 | 17 ft | 0 kts | 254° |
| 2026-04-20 04:37 | -33.93652 | 151.17464 | 17 ft | 4 kts | 255° |
| 2026-04-20 04:37 | -33.93672 | 151.17402 | 18 ft | 11 kts | 236° |
| 2026-04-20 04:37 | -33.93762 | 151.17372 | 19 ft | 26 kts | 165° |
| 2026-04-20 04:37 | -33.94191 | 151.17484 | 27 ft | 102 kts | 168° |
| 2026-04-20 04:38 | -33.95127 | 151.17730 | 134 ft | 161 kts | 168° |
| 2026-04-20 04:38 | -33.96291 | 151.18024 | 638 ft | 182 kts | 167° |
| 2026-04-20 04:38 | -33.97607 | 151.18086 | 1234 ft | 198 kts | 189° |
| 2026-04-20 04:38 | -33.99032 | 151.17779 | 1942 ft | 222 kts | 184° |
| 2026-04-20 04:39 | -34.00629 | 151.17645 | 2644 ft | 235 kts | 182° |
| 2026-04-20 04:39 | -34.02284 | 151.17582 | 3549 ft | 239 kts | 175° |
| 2026-04-20 04:39 | -34.03926 | 151.17917 | 4363 ft | 240 kts | 168° |
| 2026-04-20 04:39 | -34.05548 | 151.18429 | 5004 ft | 242 kts | 166° |
| 2026-04-20 04:40 | -34.07194 | 151.18985 | 5832 ft | 249 kts | 166° |
| 2026-04-20 04:40 | -34.08847 | 151.19544 | 6783 ft | 251 kts | 166° |
| 2026-04-20 04:40 | -34.10541 | 151.20115 | 7648 ft | 255 kts | 166° |
| 2026-04-20 04:40 | -34.12268 | 151.20694 | 8520 ft | 260 kts | 166° |
| 2026-04-20 04:41 | -34.14022 | 151.21281 | 9455 ft | 262 kts | 166° |
| 2026-04-20 04:41 | -34.15796 | 151.21873 | 10282 ft | 270 kts | 166° |
| 2026-04-20 04:41 | -34.17702 | 151.22377 | 10618 ft | 292 kts | 175° |
| 2026-04-20 04:41 | -34.19794 | 151.22189 | 10911 ft | 315 kts | 195° |
| 2026-04-20 04:42 | -34.21790 | 151.20906 | 11209 ft | 340 kts | 218° |
| 2026-04-20 04:42 | -34.23477 | 151.18830 | 11523 ft | 361 kts | 226° |
| 2026-04-20 04:42 | -34.25147 | 151.16469 | 11821 ft | 378 kts | 227° |
| 2026-04-20 04:42 | -34.26868 | 151.13992 | 12215 ft | 389 kts | 227° |
| 2026-04-20 04:43 | -34.28620 | 151.11480 | 12865 ft | 392 kts | 227° |
| 2026-04-20 04:43 | -34.30384 | 151.08965 | 13697 ft | 391 kts | 227° |
| 2026-04-20 04:43 | -34.32148 | 151.06461 | 14481 ft | 393 kts | 227° |
| 2026-04-20 04:43 | -34.33948 | 151.03914 | 14882 ft | 402 kts | 227° |
| 2026-04-20 04:44 | -34.35786 | 151.01316 | 15341 ft | 410 kts | 227° |
| 2026-04-20 04:44 | -34.37689 | 150.98794 | 15942 ft | 411 kts | 224° |
| 2026-04-20 04:44 | -34.39745 | 150.96380 | 16563 ft | 413 kts | 221° |
| 2026-04-20 04:44 | -34.41877 | 150.94039 | 17227 ft | 414 kts | 220° |
| 2026-04-20 04:45 | -34.44036 | 150.91740 | 18004 ft | 412 kts | 220° |
| 2026-04-20 04:45 | -34.46190 | 150.89460 | 18803 ft | 410 kts | 220° |
| 2026-04-20 04:45 | -34.48326 | 150.87188 | 19556 ft | 407 kts | 220° |
| 2026-04-20 04:45 | -34.50442 | 150.84921 | 20339 ft | 404 kts | 219° |
| 2026-04-20 04:46 | -34.52533 | 150.82664 | 21140 ft | 401 kts | 219° |
| 2026-04-20 04:46 | -34.54581 | 150.80383 | 21891 ft | 400 kts | 223° |
| 2026-04-20 04:46 | -34.56426 | 150.77860 | 22641 ft | 399 kts | 227° |
| 2026-04-20 04:46 | -34.58150 | 150.75228 | 23403 ft | 398 kts | 229° |
| 2026-04-20 04:47 | -34.59792 | 150.72592 | 24089 ft | 396 kts | 230° |
| 2026-04-20 04:47 | -34.61421 | 150.69900 | 24648 ft | 396 kts | 230° |
| 2026-04-20 04:47 | -34.63036 | 150.67201 | 25227 ft | 394 kts | 230° |
| 2026-04-20 04:47 | -34.64635 | 150.64516 | 25854 ft | 391 kts | 230° |
| 2026-04-20 04:48 | -34.66223 | 150.61850 | 26448 ft | 389 kts | 230° |
| 2026-04-20 04:48 | -34.67808 | 150.59196 | 27033 ft | 387 kts | 229° |
| 2026-04-20 04:48 | -34.69386 | 150.56557 | 27603 ft | 385 kts | 229° |
| 2026-04-20 04:48 | -34.70957 | 150.53935 | 28150 ft | 383 kts | 229° |
| 2026-04-20 04:49 | -34.72502 | 150.51358 | 28703 ft | 381 kts | 229° |
| 2026-04-20 04:49 | -34.74060 | 150.48761 | 29249 ft | 380 kts | 229° |
| 2026-04-20 04:49 | -34.75612 | 150.46171 | 29739 ft | 379 kts | 229° |
| 2026-04-20 04:49 | -34.77163 | 150.43584 | 30167 ft | 378 kts | 229° |
| 2026-04-20 04:50 | -34.78710 | 150.40998 | 30594 ft | 377 kts | 228° |
| 2026-04-20 04:50 | -34.80250 | 150.38421 | 31000 ft | 376 kts | 228° |
| 2026-04-20 04:50 | -34.81786 | 150.35847 | 31366 ft | 375 kts | 228° |
| 2026-04-20 04:50 | -34.83320 | 150.33278 | 31712 ft | 375 kts | 228° |
| 2026-04-20 04:51 | -34.84847 | 150.30718 | 32120 ft | 373 kts | 228° |
| 2026-04-20 04:51 | -34.86369 | 150.28167 | 32494 ft | 372 kts | 228° |
| 2026-04-20 04:51 | -34.87890 | 150.25618 | 32814 ft | 372 kts | 228° |
| 2026-04-20 04:51 | -34.89386 | 150.23108 | 33188 ft | 370 kts | 228° |
| 2026-04-20 04:52 | -34.90893 | 150.20574 | 33532 ft | 369 kts | 227° |
| 2026-04-20 04:52 | -34.92396 | 150.18043 | 33851 ft | 368 kts | 227° |
| 2026-04-20 04:52 | -34.93895 | 150.15518 | 34131 ft | 368 kts | 228° |
| 2026-04-20 04:52 | -34.95396 | 150.12989 | 34371 ft | 368 kts | 228° |
| 2026-04-20 04:53 | -34.96894 | 150.10462 | 34610 ft | 368 kts | 227° |
| 2026-04-20 04:53 | -34.98389 | 150.07939 | 34864 ft | 367 kts | 227° |
| 2026-04-20 04:53 | -34.99881 | 150.05420 | 35105 ft | 366 kts | 227° |
| 2026-04-20 04:53 | -35.01370 | 150.02906 | 35312 ft | 366 kts | 227° |
| 2026-04-20 04:54 | -35.02839 | 150.00425 | 35528 ft | 365 kts | 227° |
| 2026-04-20 04:54 | -35.04323 | 149.97912 | 35745 ft | 365 kts | 227° |
| 2026-04-20 04:54 | -35.05805 | 149.95400 | 35943 ft | 364 kts | 227° |
| 2026-04-20 04:54 | -35.07284 | 149.92893 | 36135 ft | 364 kts | 227° |
| 2026-04-20 04:55 | -35.08763 | 149.90385 | 36318 ft | 364 kts | 227° |
| 2026-04-20 04:55 | -35.10241 | 149.87879 | 36470 ft | 364 kts | 227° |
| 2026-04-20 04:55 | -35.11722 | 149.85365 | 36579 ft | 365 kts | 227° |
| 2026-04-20 04:55 | -35.13208 | 149.82843 | 36711 ft | 366 kts | 227° |
| 2026-04-20 04:56 | -35.14693 | 149.80317 | 36866 ft | 367 kts | 227° |
| 2026-04-20 04:56 | -35.16183 | 149.77782 | 36978 ft | 368 kts | 228° |
| 2026-04-20 04:56 | -35.17659 | 149.75270 | 37077 ft | 369 kts | 228° |
| 2026-04-20 04:56 | -35.19156 | 149.72718 | 37192 ft | 370 kts | 228° |
| 2026-04-20 04:57 | -35.20660 | 149.70154 | 37294 ft | 372 kts | 228° |
| 2026-04-20 04:57 | -35.22168 | 149.67579 | 37397 ft | 373 kts | 228° |
| 2026-04-20 04:57 | -35.23680 | 149.64995 | 37502 ft | 374 kts | 228° |
| 2026-04-20 04:57 | -35.25195 | 149.62406 | 37613 ft | 375 kts | 228° |
| 2026-04-20 04:58 | -35.26714 | 149.59807 | 37691 ft | 376 kts | 228° |
| 2026-04-20 04:58 | -35.28237 | 149.57199 | 37803 ft | 377 kts | 228° |
| 2026-04-20 04:58 | -35.29743 | 149.54618 | 37920 ft | 378 kts | 228° |
| 2026-04-20 04:59 | -35.32813 | 149.49356 | 38044 ft | 382 kts | 228° |
| 2026-04-20 04:59 | -35.35919 | 149.44025 | 38136 ft | 387 kts | 228° |
| 2026-04-20 05:00 | -35.39060 | 149.38620 | 38243 ft | 392 kts | 228° |
| 2026-04-20 05:00 | -35.42219 | 149.33177 | 38286 ft | 397 kts | 228° |
| 2026-04-20 05:01 | -35.45452 | 149.27604 | 38285 ft | 405 kts | 229° |
| 2026-04-20 05:01 | -35.48740 | 149.21922 | 38279 ft | 412 kts | 229° |
| 2026-04-20 05:02 | -35.52084 | 149.16142 | 38281 ft | 419 kts | 229° |
| 2026-04-20 05:02 | -35.55451 | 149.10301 | 38273 ft | 423 kts | 229° |
| 2026-04-20 05:03 | -35.58835 | 149.04411 | 38260 ft | 421 kts | 229° |
| 2026-04-20 05:03 | -35.62207 | 148.98534 | 38258 ft | 421 kts | 229° |
| 2026-04-20 05:04 | -35.65575 | 148.92651 | 38268 ft | 420 kts | 229° |
| 2026-04-20 05:04 | -35.68943 | 148.86771 | 38268 ft | 421 kts | 229° |
| 2026-04-20 05:05 | -35.71744 | 148.81878 | 38267 ft | 420 kts | 229° |
| 2026-04-20 05:05 | -35.75649 | 148.75038 | 38245 ft | 420 kts | 229° |
| 2026-04-20 05:06 | -35.79006 | 148.69150 | 38267 ft | 421 kts | 229° |
| 2026-04-20 05:06 | -35.81796 | 148.64245 | 38265 ft | 421 kts | 229° |
| 2026-04-20 05:07 | -35.85154 | 148.58340 | 38262 ft | 421 kts | 229° |
| 2026-04-20 05:07 | -35.88505 | 148.52432 | 38272 ft | 420 kts | 229° |
| 2026-04-20 05:08 | -35.91838 | 148.46525 | 38254 ft | 420 kts | 229° |
| 2026-04-20 05:08 | -35.95168 | 148.40603 | 38271 ft | 420 kts | 229° |
| 2026-04-20 05:09 | -35.98497 | 148.34676 | 38254 ft | 420 kts | 229° |
| 2026-04-20 05:09 | -36.01822 | 148.28753 | 38267 ft | 419 kts | 229° |
| 2026-04-20 05:10 | -36.05118 | 148.22866 | 38258 ft | 419 kts | 229° |
| 2026-04-20 05:10 | -36.08426 | 148.16943 | 38258 ft | 419 kts | 230° |
| 2026-04-20 05:11 | -36.11741 | 148.11007 | 38248 ft | 420 kts | 230° |
| 2026-04-20 05:11 | -36.15063 | 148.05069 | 38252 ft | 420 kts | 230° |
| 2026-04-20 05:12 | -36.18383 | 147.99127 | 38250 ft | 420 kts | 230° |
| 2026-04-20 05:12 | -36.21698 | 147.93185 | 38250 ft | 420 kts | 230° |
| 2026-04-20 05:13 | -36.24992 | 147.87270 | 38245 ft | 420 kts | 230° |
| 2026-04-20 05:13 | -36.28305 | 147.81305 | 38246 ft | 420 kts | 230° |
| 2026-04-20 05:14 | -36.31607 | 147.75349 | 38240 ft | 418 kts | 230° |
| 2026-04-20 05:14 | -36.34894 | 147.69398 | 38245 ft | 418 kts | 230° |
| 2026-04-20 05:15 | -36.38183 | 147.63439 | 38220 ft | 418 kts | 230° |
| 2026-04-20 05:15 | -36.41451 | 147.57508 | 38300 ft | 419 kts | 231° |
| 2026-04-20 05:15 | -36.43084 | 147.54537 | 38124 ft | 415 kts | 230° |
| 2026-04-20 05:16 | -36.44715 | 147.51569 | 37865 ft | 417 kts | 230° |
| 2026-04-20 05:16 | -36.46356 | 147.48585 | 37586 ft | 419 kts | 231° |
| 2026-04-20 05:16 | -36.48003 | 147.45585 | 37321 ft | 421 kts | 231° |
| 2026-04-20 05:16 | -36.49651 | 147.42575 | 37059 ft | 422 kts | 231° |
| 2026-04-20 05:17 | -36.51301 | 147.39559 | 36794 ft | 423 kts | 231° |
| 2026-04-20 05:17 | -36.52954 | 147.36536 | 36520 ft | 421 kts | 231° |
| 2026-04-20 05:17 | -36.54581 | 147.33550 | 36274 ft | 412 kts | 231° |
| 2026-04-20 05:17 | -36.56172 | 147.30623 | 36028 ft | 405 kts | 231° |
| 2026-04-20 05:18 | -36.57742 | 147.27739 | 35784 ft | 403 kts | 231° |
| 2026-04-20 05:18 | -36.59319 | 147.24850 | 35538 ft | 404 kts | 231° |
| 2026-04-20 05:18 | -36.60881 | 147.21988 | 35290 ft | 406 kts | 230° |
| 2026-04-20 05:18 | -36.62470 | 147.19074 | 35048 ft | 407 kts | 230° |
| 2026-04-20 05:19 | -36.64061 | 147.16152 | 34816 ft | 408 kts | 230° |
| 2026-04-20 05:19 | -36.65652 | 147.13224 | 34576 ft | 409 kts | 230° |
| 2026-04-20 05:19 | -36.67247 | 147.10285 | 34324 ft | 410 kts | 231° |
| 2026-04-20 05:19 | -36.68844 | 147.07341 | 34064 ft | 410 kts | 231° |
| 2026-04-20 05:20 | -36.70445 | 147.04389 | 33791 ft | 412 kts | 231° |
| 2026-04-20 05:20 | -36.72049 | 147.01427 | 33524 ft | 413 kts | 231° |
| 2026-04-20 05:20 | -36.73654 | 146.98461 | 33258 ft | 413 kts | 231° |
| 2026-04-20 05:20 | -36.75241 | 146.95524 | 33002 ft | 414 kts | 231° |
| 2026-04-20 05:21 | -36.76851 | 146.92541 | 32748 ft | 415 kts | 231° |
| 2026-04-20 05:21 | -36.78464 | 146.89549 | 32483 ft | 416 kts | 231° |
| 2026-04-20 05:21 | -36.80080 | 146.86551 | 32229 ft | 417 kts | 231° |
| 2026-04-20 05:21 | -36.81699 | 146.83544 | 31960 ft | 418 kts | 232° |
| 2026-04-20 05:22 | -36.83317 | 146.80535 | 31707 ft | 418 kts | 231° |
| 2026-04-20 05:22 | -36.84934 | 146.77526 | 31470 ft | 417 kts | 232° |
| 2026-04-20 05:22 | -36.86544 | 146.74526 | 31223 ft | 415 kts | 232° |
| 2026-04-20 05:22 | -36.88149 | 146.71533 | 30978 ft | 414 kts | 232° |
| 2026-04-20 05:23 | -36.89747 | 146.68550 | 30736 ft | 413 kts | 232° |
| 2026-04-20 05:23 | -36.91342 | 146.65571 | 30497 ft | 412 kts | 232° |
| 2026-04-20 05:23 | -36.92910 | 146.62639 | 30251 ft | 411 kts | 232° |
| 2026-04-20 05:23 | -36.94496 | 146.59678 | 29977 ft | 409 kts | 232° |
| 2026-04-20 05:24 | -36.96069 | 146.56738 | 29702 ft | 403 kts | 232° |
| 2026-04-20 05:24 | -36.97610 | 146.53845 | 29328 ft | 396 kts | 232° |
| 2026-04-20 05:24 | -36.99130 | 146.50993 | 28882 ft | 392 kts | 232° |
| 2026-04-20 05:24 | -37.00633 | 146.48174 | 28424 ft | 388 kts | 232° |
| 2026-04-20 05:25 | -37.02122 | 146.45375 | 27979 ft | 385 kts | 232° |
| 2026-04-20 05:25 | -37.03620 | 146.42590 | 27528 ft | 390 kts | 231° |
| 2026-04-20 05:25 | -37.05176 | 146.39762 | 27068 ft | 398 kts | 232° |
| 2026-04-20 05:25 | -37.06752 | 146.36823 | 26582 ft | 419 kts | 232° |
| 2026-04-20 05:26 | -37.08362 | 146.33769 | 26302 ft | 415 kts | 233° |
| 2026-04-20 05:26 | -37.09916 | 146.30788 | 25697 ft | 405 kts | 233° |
| 2026-04-20 05:26 | -37.11417 | 146.27905 | 25158 ft | 395 kts | 233° |
| 2026-04-20 05:26 | -37.12900 | 146.25066 | 24702 ft | 384 kts | 233° |
| 2026-04-20 05:27 | -37.14349 | 146.22303 | 24249 ft | 375 kts | 232° |
| 2026-04-20 05:27 | -37.15766 | 146.19609 | 23795 ft | 366 kts | 232° |
| 2026-04-20 05:27 | -37.17158 | 146.16970 | 23293 ft | 361 kts | 232° |
| 2026-04-20 05:27 | -37.18539 | 146.14359 | 22850 ft | 358 kts | 232° |
| 2026-04-20 05:28 | -37.19911 | 146.11763 | 22398 ft | 355 kts | 233° |
| 2026-04-20 05:28 | -37.21269 | 146.09191 | 21974 ft | 353 kts | 233° |
| 2026-04-20 05:28 | -37.22619 | 146.06632 | 21538 ft | 350 kts | 233° |
| 2026-04-20 05:28 | -37.23940 | 146.04123 | 21107 ft | 348 kts | 233° |
| 2026-04-20 05:29 | -37.25271 | 146.01592 | 20686 ft | 346 kts | 234° |
| 2026-04-20 05:29 | -37.26593 | 145.99078 | 20259 ft | 345 kts | 234° |
| 2026-04-20 05:29 | -37.27908 | 145.96570 | 19836 ft | 343 kts | 234° |
| 2026-04-20 05:29 | -37.29218 | 145.94071 | 19410 ft | 342 kts | 234° |
| 2026-04-20 05:30 | -37.30524 | 145.91578 | 18974 ft | 341 kts | 234° |
| 2026-04-20 05:30 | -37.31823 | 145.89098 | 18565 ft | 339 kts | 235° |
| 2026-04-20 05:30 | -37.33121 | 145.86625 | 18091 ft | 338 kts | 235° |
| 2026-04-20 05:30 | -37.34413 | 145.84172 | 17670 ft | 335 kts | 235° |
| 2026-04-20 05:31 | -37.35694 | 145.81735 | 17256 ft | 333 kts | 235° |
| 2026-04-20 05:31 | -37.36962 | 145.79313 | 16825 ft | 331 kts | 235° |
| 2026-04-20 05:31 | -37.38211 | 145.76935 | 16418 ft | 329 kts | 235° |
| 2026-04-20 05:31 | -37.39466 | 145.74538 | 16008 ft | 328 kts | 235° |
| 2026-04-20 05:32 | -37.40715 | 145.72148 | 15600 ft | 326 kts | 235° |
| 2026-04-20 05:32 | -37.41961 | 145.69761 | 15192 ft | 326 kts | 236° |
| 2026-04-20 05:32 | -37.43201 | 145.67383 | 14774 ft | 325 kts | 236° |
| 2026-04-20 05:32 | -37.44278 | 145.64894 | 14368 ft | 325 kts | 247° |
| 2026-04-20 05:33 | -37.44837 | 145.62139 | 13951 ft | 327 kts | 261° |
| 2026-04-20 05:33 | -37.44964 | 145.59286 | 13496 ft | 327 kts | 268° |
| 2026-04-20 05:33 | -37.44972 | 145.56468 | 13078 ft | 326 kts | 268° |
| 2026-04-20 05:33 | -37.44952 | 145.53628 | 12655 ft | 324 kts | 269° |
| 2026-04-20 05:34 | -37.44925 | 145.50778 | 12016 ft | 328 kts | 269° |
| 2026-04-20 05:34 | -37.44894 | 145.47905 | 11519 ft | 327 kts | 269° |
| 2026-04-20 05:34 | -37.44829 | 145.42249 | 10712 ft | 320 kts | 270° |
| 2026-04-20 05:35 | -37.44796 | 145.39481 | 10518 ft | 310 kts | 270° |
| 2026-04-20 05:35 | -37.44764 | 145.36832 | 10433 ft | 296 kts | 270° |
| 2026-04-20 05:35 | -37.44732 | 145.34286 | 10237 ft | 288 kts | 270° |
| 2026-04-20 05:35 | -37.44701 | 145.31770 | 9827 ft | 287 kts | 270° |
| 2026-04-20 05:36 | -37.44669 | 145.29280 | 9490 ft | 283 kts | 270° |
| 2026-04-20 05:36 | -37.44637 | 145.26819 | 9156 ft | 279 kts | 270° |
| 2026-04-20 05:36 | -37.44606 | 145.24423 | 8839 ft | 276 kts | 270° |
| 2026-04-20 05:36 | -37.44575 | 145.22019 | 8525 ft | 274 kts | 270° |
| 2026-04-20 05:37 | -37.44542 | 145.19639 | 8204 ft | 270 kts | 270° |
| 2026-04-20 05:37 | -37.44510 | 145.17310 | 7906 ft | 264 kts | 270° |
| 2026-04-20 05:37 | -37.44477 | 145.15012 | 7606 ft | 262 kts | 270° |
| 2026-04-20 05:37 | -37.44445 | 145.12725 | 7302 ft | 261 kts | 270° |
| 2026-04-20 05:38 | -37.44413 | 145.10445 | 7003 ft | 261 kts | 270° |
| 2026-04-20 05:38 | -37.44380 | 145.08166 | 6700 ft | 260 kts | 271° |
| 2026-04-20 05:38 | -37.44346 | 145.05893 | 6387 ft | 260 kts | 271° |
| 2026-04-20 05:38 | -37.44313 | 145.03660 | 6080 ft | 257 kts | 271° |
| 2026-04-20 05:39 | -37.44279 | 145.01415 | 5789 ft | 256 kts | 271° |
| 2026-04-20 05:39 | -37.44245 | 144.99183 | 5492 ft | 254 kts | 271° |
| 2026-04-20 05:39 | -37.44211 | 144.96970 | 5268 ft | 250 kts | 271° |
| 2026-04-20 05:39 | -37.44199 | 144.94846 | 5208 ft | 234 kts | 268° |
| 2026-04-20 05:40 | -37.44377 | 144.92885 | 5104 ft | 217 kts | 262° |
| 2026-04-20 05:40 | -37.44622 | 144.91081 | 5006 ft | 200 kts | 261° |
| 2026-04-20 05:40 | -37.44860 | 144.89423 | 4906 ft | 185 kts | 261° |
| 2026-04-20 05:40 | -37.45080 | 144.87893 | 4839 ft | 171 kts | 261° |
| 2026-04-20 05:41 | -37.45289 | 144.86428 | 4668 ft | 172 kts | 260° |
| 2026-04-20 05:41 | -37.45497 | 144.84952 | 4466 ft | 175 kts | 260° |
| 2026-04-20 05:41 | -37.45711 | 144.83445 | 4263 ft | 175 kts | 260° |
| 2026-04-20 05:41 | -37.46019 | 144.81956 | 4079 ft | 176 kts | 245° |
| 2026-04-20 05:42 | -37.46841 | 144.80892 | 3878 ft | 172 kts | 202° |
| 2026-04-20 05:42 | -37.48003 | 144.80592 | 3733 ft | 170 kts | 181° |
| 2026-04-20 05:42 | -37.49188 | 144.80689 | 3498 ft | 171 kts | 172° |
| 2026-04-20 05:42 | -37.50372 | 144.80891 | 3304 ft | 169 kts | 171° |
| 2026-04-20 05:43 | -37.51486 | 144.81087 | 3153 ft | 155 kts | 171° |
| 2026-04-20 05:43 | -37.52529 | 144.81266 | 2973 ft | 149 kts | 173° |
| 2026-04-20 05:43 | -37.53547 | 144.81439 | 2778 ft | 147 kts | 173° |
| 2026-04-20 05:43 | -37.54559 | 144.81615 | 2579 ft | 147 kts | 173° |
| 2026-04-20 05:44 | -37.55554 | 144.81791 | 2388 ft | 146 kts | 174° |
| 2026-04-20 05:44 | -37.56566 | 144.81955 | 2164 ft | 146 kts | 173° |
| 2026-04-20 05:44 | -37.57567 | 144.82101 | 1950 ft | 142 kts | 173° |
| 2026-04-20 05:44 | -37.58517 | 144.82269 | 1714 ft | 135 kts | 172° |
| 2026-04-20 05:45 | -37.59466 | 144.82451 | 1581 ft | 138 kts | 173° |
| 2026-04-20 05:45 | -37.60411 | 144.82618 | 1362 ft | 138 kts | 172° |
| 2026-04-20 05:45 | -37.61367 | 144.82773 | 1223 ft | 139 kts | 172° |
| 2026-04-20 05:45 | -37.62321 | 144.82948 | 1085 ft | 138 kts | 171° |
| 2026-04-20 05:46 | -37.63251 | 144.83127 | 882 ft | 137 kts | 173° |
| 2026-04-20 05:46 | -37.64182 | 144.83291 | 678 ft | 132 kts | 172° |
| 2026-04-20 05:46 | -37.65092 | 144.83459 | 510 ft | 132 kts | 174° |
| 2026-04-20 05:46 | -37.65968 | 144.83617 | 409 ft | 121 kts | 172° |
| 2026-04-20 05:47 | -37.66800 | 144.83764 | 548 ft | 134 kts | 171° |
| 2026-04-20 05:47 | -37.67846 | 144.83973 | 891 ft | 172 kts | 170° |
| 2026-04-20 05:47 | -37.69158 | 144.84225 | 1202 ft | 209 kts | 171° |
| 2026-04-20 05:47 | -37.70745 | 144.84492 | 1479 ft | 247 kts | 173° |
| 2026-04-20 05:48 | -37.72429 | 144.84756 | 2576 ft | 240 kts | 173° |
| 2026-04-20 05:48 | -37.74020 | 144.84996 | 3407 ft | 225 kts | 174° |
| 2026-04-20 05:48 | -37.75585 | 144.85262 | 3861 ft | 230 kts | 177° |
| 2026-04-20 05:48 | -37.77117 | 144.84955 | 3985 ft | 227 kts | 209° |
| 2026-04-20 05:49 | -37.78276 | 144.83671 | 3990 ft | 224 kts | 241° |
| 2026-04-20 05:49 | -37.78678 | 144.81802 | 3993 ft | 222 kts | 274° |
| 2026-04-20 05:49 | -37.78185 | 144.79985 | 3990 ft | 221 kts | 307° |
| 2026-04-20 05:49 | -37.76967 | 144.78819 | 4002 ft | 225 kts | 338° |
| 2026-04-20 05:50 | -37.75434 | 144.78368 | 3991 ft | 229 kts | 351° |
| 2026-04-20 05:50 | -37.73850 | 144.78111 | 3987 ft | 230 kts | 351° |
| 2026-04-20 05:50 | -37.72258 | 144.77882 | 3997 ft | 231 kts | 351° |
| 2026-04-20 05:50 | -37.70663 | 144.77651 | 3996 ft | 231 kts | 352° |
| 2026-04-20 05:51 | -37.69087 | 144.77403 | 3992 ft | 231 kts | 352° |
| 2026-04-20 05:51 | -37.67495 | 144.77153 | 4022 ft | 230 kts | 352° |
| 2026-04-20 05:51 | -37.65911 | 144.76900 | 4006 ft | 229 kts | 351° |
| 2026-04-20 05:51 | -37.64321 | 144.76651 | 3995 ft | 231 kts | 352° |
| 2026-04-20 05:52 | -37.62725 | 144.76393 | 3996 ft | 231 kts | 352° |
| 2026-04-20 05:52 | -37.61128 | 144.76137 | 3996 ft | 231 kts | 351° |
| 2026-04-20 05:52 | -37.59532 | 144.75879 | 3998 ft | 232 kts | 352° |
| 2026-04-20 05:52 | -37.57966 | 144.75632 | 3998 ft | 225 kts | 352° |
| 2026-04-20 05:53 | -37.56385 | 144.75377 | 3990 ft | 232 kts | 352° |
| 2026-04-20 05:53 | -37.54771 | 144.75100 | 3998 ft | 239 kts | 352° |
| 2026-04-20 05:53 | -37.53127 | 144.74789 | 3993 ft | 238 kts | 352° |
| 2026-04-20 05:53 | -37.51491 | 144.74491 | 3989 ft | 237 kts | 352° |
| 2026-04-20 05:54 | -37.49858 | 144.74195 | 3987 ft | 237 kts | 352° |
| 2026-04-20 05:54 | -37.48230 | 144.73904 | 3992 ft | 236 kts | 352° |
| 2026-04-20 05:54 | -37.46626 | 144.73618 | 3992 ft | 236 kts | 352° |
| 2026-04-20 05:54 | -37.44999 | 144.73329 | 3990 ft | 236 kts | 352° |
| 2026-04-20 05:55 | -37.43372 | 144.73038 | 3987 ft | 236 kts | 352° |
| 2026-04-20 05:55 | -37.41746 | 144.72747 | 3980 ft | 236 kts | 352° |
| 2026-04-20 05:55 | -37.40116 | 144.72483 | 3982 ft | 236 kts | 357° |
| 2026-04-20 05:55 | -37.38529 | 144.72889 | 3776 ft | 236 kts | 27° |
| 2026-04-20 05:56 | -37.37331 | 144.74261 | 3294 ft | 234 kts | 60° |
| 2026-04-20 05:56 | -37.36937 | 144.76152 | 3026 ft | 223 kts | 95° |
| 2026-04-20 05:56 | -37.37460 | 144.77866 | 2979 ft | 201 kts | 136° |
| 2026-04-20 05:56 | -37.38584 | 144.78668 | 2996 ft | 176 kts | 162° |
| 2026-04-20 05:57 | -37.39741 | 144.79008 | 3000 ft | 169 kts | 170° |
| 2026-04-20 05:57 | -37.40907 | 144.79225 | 2993 ft | 170 kts | 172° |
| 2026-04-20 05:57 | -37.42084 | 144.79429 | 2986 ft | 171 kts | 173° |
| 2026-04-20 05:57 | -37.43263 | 144.79630 | 2986 ft | 171 kts | 172° |
| 2026-04-20 05:58 | -37.44440 | 144.79833 | 2989 ft | 170 kts | 171° |
| 2026-04-20 05:58 | -37.45616 | 144.80038 | 2989 ft | 171 kts | 172° |
| 2026-04-20 05:58 | -37.46796 | 144.80245 | 2988 ft | 172 kts | 172° |
| 2026-04-20 05:58 | -37.47986 | 144.80457 | 3001 ft | 172 kts | 172° |
| 2026-04-20 05:59 | -37.49071 | 144.80649 | 2996 ft | 146 kts | 172° |
| 2026-04-20 05:59 | -37.50004 | 144.80814 | 3000 ft | 128 kts | 171° |
| 2026-04-20 05:59 | -37.50881 | 144.80970 | 3006 ft | 127 kts | 171° |
| 2026-04-20 05:59 | -37.51763 | 144.81127 | 2992 ft | 129 kts | 172° |
| 2026-04-20 06:00 | -37.52654 | 144.81285 | 2955 ft | 130 kts | 172° |
| 2026-04-20 06:00 | -37.53548 | 144.81444 | 2796 ft | 130 kts | 172° |
| 2026-04-20 06:00 | -37.54451 | 144.81603 | 2622 ft | 131 kts | 173° |
| 2026-04-20 06:00 | -37.55349 | 144.81757 | 2283 ft | 130 kts | 173° |
| 2026-04-20 06:01 | -37.56233 | 144.81880 | 2088 ft | 126 kts | 173° |
| 2026-04-20 06:01 | -37.57096 | 144.82012 | 1861 ft | 123 kts | 172° |
| 2026-04-20 06:01 | -37.57933 | 144.82166 | 1682 ft | 123 kts | 172° |
| 2026-04-20 06:01 | -37.58797 | 144.82324 | 1518 ft | 126 kts | 171° |
| 2026-04-20 06:02 | -37.59664 | 144.82467 | 1406 ft | 126 kts | 173° |
| 2026-04-20 06:02 | -37.60529 | 144.82625 | 1282 ft | 127 kts | 169° |
| 2026-04-20 06:02 | -37.61410 | 144.82809 | 1140 ft | 127 kts | 169° |
| 2026-04-20 06:02 | -37.62291 | 144.82963 | 996 ft | 127 kts | 172° |
| 2026-04-20 06:03 | -37.63153 | 144.83119 | 924 ft | 125 kts | 169° |
| 2026-04-20 06:03 | -37.64025 | 144.83272 | 738 ft | 124 kts | 174° |
| 2026-04-20 06:03 | -37.64861 | 144.83416 | 569 ft | 121 kts | 172° |
| 2026-04-20 06:03 | -37.65687 | 144.83566 | 418 ft | 110 kts | 171° |
| 2026-04-20 06:04 | -37.66184 | 144.83655 | 400 ft | 45 kts | 171° |
| 2026-04-20 06:04 | -37.66460 | 144.83733 | 396 ft | 37 kts | 141° |
| 2026-04-20 06:04 | -37.66503 | 144.83875 | 392 ft | 11 kts | 99° |
| 2026-04-20 06:04 | -37.66546 | 144.83937 | 389 ft | 9 kts | 146° |
| 2026-04-20 06:05 | -37.66584 | 144.83947 | 388 ft | 6 kts | 175° |
| 2026-04-20 06:05 | -37.66647 | 144.83959 | 387 ft | 13 kts | 169° |
| 2026-04-20 06:05 | -37.66763 | 144.83980 | 385 ft | 20 kts | 172° |
| 2026-04-20 06:05 | -37.66925 | 144.84010 | 381 ft | 26 kts | 171° |
| 2026-04-20 06:06 | -37.67110 | 144.84045 | 376 ft | 21 kts | 172° |
| 2026-04-20 06:06 | -37.67217 | 144.84100 | 373 ft | 14 kts | 121° |
| 2026-04-20 06:06 | -37.67225 | 144.84216 | 375 ft | 17 kts | 103° |
| 2026-04-20 06:06 | -37.67266 | 144.84333 | 372 ft | 1 kts | 115° |
| 2026-04-20 06:07 | -37.67269 | 144.84343 | 372 ft | 3 kts | 118° |
| 2026-04-20 06:07 | -37.67273 | 144.84350 | 371 ft | 0 kts | 129° |
| 2026-04-20 06:07 | -37.67274 | 144.84351 | 371 ft | 0 kts | 129° |
| 2026-04-20 06:08 | -37.67298 | 144.84364 | 367 ft | 4 kts | 193° |
| 2026-04-20 06:08 | -37.67319 | 144.84335 | 367 ft | 8 kts | 252° |
| 2026-04-20 06:08 | -37.67263 | 144.84286 | 369 ft | 10 kts | 5° |
| 2026-04-20 06:08 | -37.67205 | 144.84340 | 370 ft | 14 kts | 73° |
| 2026-04-20 06:09 | -37.67169 | 144.84448 | 367 ft | 10 kts | 33° |
| 2026-04-20 06:09 | -37.67079 | 144.84449 | 371 ft | 17 kts | 353° |
| 2026-04-20 06:09 | -37.67016 | 144.84488 | 368 ft | 8 kts | 67° |
| 2026-04-20 06:09 | -37.67011 | 144.84568 | 362 ft | 10 kts | 78° |
| 2026-04-20 06:10 | -37.67050 | 144.84622 | 362 ft | 9 kts | 172° |
| 2026-04-20 06:10 | -37.67061 | 144.84624 | 363 ft | 0 kts | 172° |